createdAt,value
2023-03-24T00:00:18.777Z,97941.84
2023-03-24T00:02:46.995Z,97948.75
2023-03-24T00:05:17.107Z,97955.28
2023-03-24T00:07:46.706Z,97953.50
2023-03-24T00:10:19.391Z,97950.41
2023-03-24T00:12:47.476Z,97948.03
2023-03-24T00:15:19.270Z,97948.84
2023-03-24T00:17:47.282Z,97945.03
2023-03-24T00:20:16.522Z,97946.59
2023-03-24T00:22:48.789Z,97947.38
2023-03-24T00:25:24.235Z,97955.50
2023-03-24T00:27:51.721Z,97950.47
2023-03-24T00:30:19.688Z,97942.13
2023-03-24T00:32:46.891Z,97947.94
2023-03-24T00:35:16.697Z,97942.50
2023-03-24T00:37:44.849Z,97930.50
2023-03-24T00:40:17.467Z,97934.13
2023-03-24T00:42:46.774Z,97930.84
2023-03-24T00:45:20.597Z,97920.69
2023-03-24T00:47:50.586Z,97911.59
2023-03-24T00:50:19.231Z,97911.34
2023-03-24T00:52:48.399Z,97918.41
2023-03-24T00:55:16.233Z,97915.78
2023-03-24T00:57:51.515Z,97900.59
2023-03-24T01:00:36.693Z,97913.31
2023-03-24T01:03:05.415Z,97920.03
2023-03-24T01:05:32.354Z,97900.72
2023-03-24T01:08:03.927Z,97895.00
2023-03-24T01:10:34.031Z,97894.06
2023-03-24T01:13:01.854Z,97881.78
2023-03-24T01:15:33.812Z,97886.16
2023-03-24T01:18:03.663Z,97871.75
2023-03-24T01:20:35.862Z,97860.47
2023-03-24T01:23:07.604Z,97850.41
2023-03-24T01:25:39.320Z,97845.69
2023-03-24T01:28:06.220Z,97848.50
2023-03-24T01:30:33.083Z,97842.13
2023-03-24T01:33:00.862Z,97838.22
2023-03-24T01:35:29.517Z,97831.03
2023-03-24T01:37:57.739Z,97834.34
2023-03-24T01:40:27.763Z,97836.69
2023-03-24T01:42:55.285Z,97842.22
2023-03-24T01:46:30.650Z,97839.22
2023-03-24T01:49:01.904Z,97840.03
2023-03-24T01:51:36.001Z,97839.22
2023-03-24T01:54:04.110Z,97839.31
2023-03-24T01:56:34.602Z,97832.44
2023-03-24T01:59:06.959Z,97822.53
2023-03-24T02:01:34.056Z,97829.06
2023-03-24T02:04:04.397Z,97826.72
2023-03-24T02:06:33.684Z,97817.81
2023-03-24T02:09:01.790Z,97811.28
2023-03-24T02:11:33.073Z,97810.44
2023-03-24T02:14:00.118Z,97808.63
2023-03-24T02:16:43.452Z,97802.75
2023-03-24T02:19:52.563Z,97799.84
2023-03-24T02:22:57.099Z,97794.94
2023-03-24T02:25:48.949Z,97796.38
2023-03-24T02:28:55.326Z,97788.22
2023-03-24T02:31:51.194Z,97782.50
2023-03-24T02:34:32.445Z,97784.06
2023-03-24T02:37:19.070Z,97777.97
2023-03-24T02:40:30.066Z,97770.88
2023-03-24T02:43:16.987Z,97772.69
2023-03-24T02:46:38.016Z,97773.16
2023-03-24T02:49:14.411Z,97762.63
2023-03-24T02:52:01.847Z,97748.94
2023-03-24T02:55:00.830Z,97742.56
2023-03-24T02:57:34.762Z,97741.56
2023-03-24T03:00:31.462Z,97733.38
2023-03-24T03:03:10.443Z,97729.78
2023-03-24T03:05:41.145Z,97724.53
2023-03-24T03:08:10.815Z,97712.72
2023-03-24T03:10:39.935Z,97714.97
2023-03-24T03:13:11.568Z,97714.34
2023-03-24T03:15:43.612Z,97714.34
2023-03-24T03:18:11.989Z,97708.72
2023-03-24T03:20:43.301Z,97708.19
2023-03-24T03:23:14.330Z,97706.81
2023-03-24T03:25:46.805Z,97707.06
2023-03-24T03:28:18.292Z,97693.66
2023-03-24T03:30:48.047Z,97700.03
2023-03-24T03:33:34.319Z,97689.25
2023-03-24T03:36:29.794Z,97696.41
2023-03-24T03:39:29.624Z,97690.13
2023-03-24T03:41:57.441Z,97698.13
2023-03-24T03:44:24.574Z,97685.50
2023-03-24T03:46:51.515Z,97681.34
2023-03-24T03:49:18.344Z,97688.50
2023-03-24T03:51:45.129Z,97676.16
2023-03-24T03:54:13.618Z,97675.34
2023-03-24T03:56:41.328Z,97683.31
2023-03-24T03:59:08.688Z,97673.00
2023-03-24T04:01:37.642Z,97661.38
2023-03-24T04:04:38.559Z,97657.03
2023-03-24T04:07:25.403Z,97659.59
2023-03-24T04:09:59.823Z,97653.31
2023-03-24T04:13:06.676Z,97646.75
2023-03-24T04:15:46.030Z,97635.53
2023-03-24T04:18:32.544Z,97642.13
2023-03-24T04:21:04.787Z,97638.41
2023-03-24T04:23:42.438Z,97633.72
2023-03-24T04:26:18.933Z,97634.06
2023-03-24T04:28:52.900Z,97632.44
2023-03-24T04:31:29.050Z,97636.34
2023-03-24T04:34:13.815Z,97632.19
2023-03-24T04:36:54.607Z,97644.78
2023-03-24T04:39:25.945Z,97641.81
2023-03-24T04:41:53.320Z,97640.34
2023-03-24T04:44:22.151Z,97641.44
2023-03-24T04:46:55.991Z,97621.66
2023-03-24T04:49:25.665Z,97631.19
2023-03-24T04:51:53.094Z,97625.75
2023-03-24T04:54:21.052Z,97624.56
2023-03-24T04:56:53.114Z,97614.03
2023-03-24T04:59:20.342Z,97608.03
2023-03-24T05:01:50.229Z,97608.75
2023-03-24T05:04:18.871Z,97615.72
2023-03-24T05:06:47.216Z,97608.91
2023-03-24T05:09:15.217Z,97602.91
2023-03-24T05:11:41.983Z,97608.59
2023-03-24T05:14:08.819Z,97608.59
2023-03-24T05:16:35.568Z,97605.59
2023-03-24T05:19:03.161Z,97609.13
2023-03-24T05:21:31.865Z,97605.59
2023-03-24T05:24:00.205Z,97602.03
2023-03-24T05:26:26.973Z,97613.38
2023-03-24T05:28:54.282Z,97610.47
2023-03-24T05:31:21.048Z,97617.00
2023-03-24T05:33:49.050Z,97621.66
2023-03-24T05:36:16.633Z,97623.91
2023-03-24T05:38:43.367Z,97631.00
2023-03-24T05:41:10.161Z,97618.63
2023-03-24T05:43:36.975Z,97614.47
2023-03-24T05:46:03.707Z,97622.63
2023-03-24T05:48:30.465Z,97621.41
2023-03-24T05:50:57.757Z,97600.03
2023-03-24T05:53:24.447Z,97593.69
2023-03-24T05:55:53.930Z,97606.66
2023-03-24T05:58:21.751Z,97603.50
2023-03-24T06:00:48.982Z,97614.38
2023-03-24T06:03:17.717Z,97616.19
2023-03-24T06:05:46.576Z,97622.97
2023-03-24T06:08:13.956Z,97617.97
2023-03-24T06:10:41.537Z,97607.16
2023-03-24T06:13:09.493Z,97613.06
2023-03-24T06:15:36.756Z,97617.09
2023-03-24T06:18:05.588Z,97617.97
2023-03-24T06:20:33.081Z,97622.78
2023-03-24T06:23:00.308Z,97610.06
2023-03-24T06:25:28.917Z,97606.41
2023-03-24T06:27:55.758Z,97621.03
2023-03-24T06:30:22.650Z,97623.22
2023-03-24T06:32:53.627Z,97629.00
2023-03-24T06:35:20.571Z,97634.09
2023-03-24T06:37:49.336Z,97620.97
2023-03-24T06:40:18.454Z,97613.63
2023-03-24T06:42:45.326Z,97608.38
2023-03-24T06:45:12.564Z,97609.19
2023-03-24T06:47:39.361Z,97618.91
2023-03-24T06:50:07.546Z,97617.38
2023-03-24T06:52:34.833Z,97626.38
2023-03-24T06:55:02.640Z,97638.53
2023-03-24T06:57:29.458Z,97632.81
2023-03-24T06:59:56.894Z,97640.53
2023-03-24T07:02:24.000Z,97643.38
2023-03-24T07:04:51.091Z,97635.03
2023-03-24T07:09:47.969Z,97636.50
2023-03-24T07:12:15.003Z,97634.44
2023-03-24T07:14:41.990Z,97636.59
2023-03-24T07:17:09.033Z,97640.00
2023-03-24T07:19:36.287Z,97643.91
2023-03-24T07:22:03.710Z,97640.44
2023-03-24T07:24:31.900Z,97652.84
2023-03-24T07:27:00.627Z,97666.44
2023-03-24T07:29:27.888Z,97663.22
2023-03-24T07:31:54.810Z,97662.00
2023-03-24T07:34:21.593Z,97664.06
2023-03-24T07:36:48.418Z,97673.22
2023-03-24T07:39:15.176Z,97679.44
2023-03-24T07:41:42.216Z,97678.41
2023-03-24T07:44:09.462Z,97674.56
2023-03-24T07:46:36.996Z,97676.84
2023-03-24T07:49:18.321Z,97678.88
2023-03-24T07:51:49.433Z,97693.53
2023-03-24T07:54:20.025Z,97684.06
2023-03-24T07:56:48.717Z,97682.34
2023-03-24T07:59:15.796Z,97682.16
2023-03-24T08:01:43.066Z,97690.31
2023-03-24T08:04:12.679Z,97686.94
2023-03-24T08:06:40.529Z,97691.97
2023-03-24T08:09:11.175Z,97695.09
2023-03-24T08:11:40.826Z,97689.59
2023-03-24T08:14:12.105Z,97682.75
2023-03-24T08:16:42.912Z,97691.06
2023-03-24T08:19:11.424Z,97690.50
2023-03-24T08:21:40.958Z,97693.53
2023-03-24T08:24:09.054Z,97690.13
2023-03-24T08:26:36.192Z,97699.84
2023-03-24T08:29:04.327Z,97697.44
2023-03-24T08:31:35.860Z,97704.94
2023-03-24T08:34:08.406Z,97712.66
2023-03-24T08:36:35.252Z,97709.63
2023-03-24T08:39:04.607Z,97718.56
2023-03-24T08:41:37.116Z,97711.66
2023-03-24T08:44:07.097Z,97717.75
2023-03-24T08:46:35.054Z,97716.09
2023-03-24T08:49:03.331Z,97709.06
2023-03-24T08:51:32.046Z,97712.06
2023-03-24T08:54:02.797Z,97702.00
2023-03-24T08:56:31.197Z,97715.44
2023-03-24T08:58:59.800Z,97699.22
2023-03-24T09:01:27.863Z,97687.88
2023-03-24T09:03:54.844Z,97700.50
2023-03-24T09:06:23.088Z,97719.59
2023-03-24T09:08:51.710Z,97741.41
2023-03-24T09:11:23.827Z,97750.31
2023-03-24T09:14:01.464Z,97757.75
2023-03-24T09:16:35.095Z,97775.66
2023-03-24T09:19:03.380Z,97778.88
2023-03-24T09:21:30.839Z,97775.88
2023-03-24T09:23:59.787Z,97769.38
2023-03-24T09:26:28.895Z,97769.53
2023-03-24T09:28:56.243Z,97766.69
2023-03-24T09:31:23.128Z,97753.25
2023-03-24T09:33:52.805Z,97768.59
2023-03-24T09:36:23.797Z,97775.16
2023-03-24T09:38:55.347Z,97778.22
2023-03-24T09:41:34.464Z,97771.69
2023-03-24T09:44:18.050Z,97766.97
2023-03-24T09:46:50.371Z,97773.31
2023-03-24T09:49:29.418Z,97774.59
2023-03-24T09:52:02.724Z,97776.06
2023-03-24T09:54:40.803Z,97775.69
2023-03-24T09:57:17.267Z,97776.41
2023-03-24T09:59:47.267Z,97786.94
2023-03-24T10:02:23.917Z,97794.47
2023-03-24T10:04:52.286Z,97799.06
2023-03-24T10:07:32.650Z,97803.44
2023-03-24T10:10:05.147Z,97797.97
2023-03-24T10:12:40.479Z,97806.94
2023-03-24T10:15:31.035Z,97811.47
2023-03-24T10:18:35.136Z,97829.13
2023-03-24T10:21:20.933Z,97838.69
2023-03-24T10:24:08.621Z,97835.13
2023-03-24T10:26:43.278Z,97838.13
2023-03-24T10:29:37.988Z,97828.16
2023-03-24T10:32:27.994Z,97833.44
2023-03-24T10:35:02.562Z,97832.47
2023-03-24T10:37:32.373Z,97832.22
2023-03-24T10:40:01.468Z,97837.13
2023-03-24T10:42:40.636Z,97831.88
2023-03-24T10:45:21.043Z,97830.34
2023-03-24T10:47:49.517Z,97812.00
2023-03-24T10:50:16.980Z,97821.53
2023-03-24T10:52:49.334Z,97820.41
2023-03-24T10:55:19.841Z,97802.91
2023-03-24T10:57:49.513Z,97791.69
2023-03-24T11:00:36.733Z,97792.16
2023-03-24T11:03:13.131Z,97801.66
2023-03-24T11:05:47.084Z,97810.63
2023-03-24T11:08:29.083Z,97826.50
2023-03-24T11:10:57.451Z,97839.47
2023-03-24T11:13:39.095Z,97831.72
2023-03-24T11:16:22.830Z,97839.13
2023-03-24T11:19:07.643Z,97844.75
2023-03-24T11:21:38.092Z,97861.22
2023-03-24T11:24:19.573Z,97876.78
2023-03-24T11:27:01.068Z,97876.97
2023-03-24T11:29:38.680Z,97881.16
2023-03-24T11:32:17.008Z,97887.78
2023-03-24T11:34:52.166Z,97875.09
2023-03-24T11:37:24.754Z,97881.69
2023-03-24T11:40:14.826Z,97863.91
2023-03-24T11:42:52.342Z,97880.91
2023-03-24T11:45:29.744Z,97875.34
2023-03-24T11:48:02.182Z,97857.69
2023-03-24T11:50:39.243Z,97847.41
2023-03-24T11:53:25.326Z,97832.81
2023-03-24T11:56:32.190Z,97845.78
2023-03-24T11:59:19.166Z,97845.19
2023-03-24T12:02:03.714Z,97852.19
2023-03-24T12:05:05.996Z,97839.09
2023-03-24T12:08:05.379Z,97837.22
2023-03-24T12:11:08.609Z,97849.56
2023-03-24T12:13:39.014Z,97861.72
2023-03-24T12:17:00.094Z,97861.84
2023-03-24T12:19:39.647Z,97866.03
2023-03-24T12:22:21.281Z,97876.47
2023-03-24T12:25:35.686Z,97882.44
2023-03-24T12:28:32.909Z,97885.81
2023-03-24T12:31:29.756Z,97861.38
2023-03-24T12:34:20.810Z,97852.31
2023-03-24T12:37:20.421Z,97833.78
2023-03-24T12:40:19.164Z,97842.94
2023-03-24T12:42:48.946Z,97875.91
2023-03-24T12:45:21.434Z,97872.63
2023-03-24T12:47:57.564Z,97860.66
2023-03-24T12:50:54.466Z,97856.75
2023-03-24T12:53:31.353Z,97841.38
2023-03-24T12:56:02.559Z,97830.09
2023-03-24T12:58:43.756Z,97836.19
2023-03-24T13:01:40.012Z,97844.28
2023-03-24T13:04:38.453Z,97835.97
2023-03-24T13:07:15.245Z,97832.66
2023-03-24T13:10:14.525Z,97827.06
2023-03-24T13:13:21.968Z,97827.97
2023-03-24T13:15:52.706Z,97840.00
2023-03-24T13:18:40.897Z,97829.50
2023-03-24T13:21:13.080Z,97824.34
2023-03-24T13:24:05.457Z,97835.63
2023-03-24T13:26:44.655Z,97838.28
2023-03-24T13:32:54.500Z,97839.28
2023-03-24T13:35:48.243Z,97846.28
2023-03-24T13:38:56.069Z,97834.91
2023-03-24T13:41:27.553Z,97842.34
2023-03-24T13:44:16.746Z,97838.25
2023-03-24T13:46:44.602Z,97850.81
2023-03-24T13:49:16.161Z,97846.06
2023-03-24T13:51:46.941Z,97847.44
2023-03-24T13:54:17.524Z,97852.84
2023-03-24T13:57:01.293Z,97842.78
2023-03-24T13:59:43.136Z,97845.88
2023-03-24T14:02:57.462Z,97842.81
2023-03-24T14:05:58.761Z,97837.50
2023-03-24T14:08:54.768Z,97837.06
2023-03-24T14:12:11.926Z,97843.63
2023-03-24T14:15:16.160Z,97842.63
2023-03-24T14:17:44.675Z,97838.47
2023-03-24T14:20:13.920Z,97830.44
2023-03-24T14:22:50.269Z,97826.22
2023-03-24T14:25:32.372Z,97823.41
2023-03-24T14:28:18.563Z,97826.72
2023-03-24T14:31:02.419Z,97825.91
2023-03-24T14:33:30.083Z,97823.06
2023-03-24T14:36:05.092Z,97819.84
2023-03-24T14:38:37.166Z,97831.19
2023-03-24T14:41:16.425Z,97829.19
2023-03-24T14:43:54.317Z,97823.66
2023-03-24T14:46:52.202Z,97825.28
2023-03-24T14:49:30.922Z,97815.31
2023-03-24T14:52:31.519Z,97813.31
2023-03-24T14:55:08.334Z,97816.88
2023-03-24T14:57:44.473Z,97804.81
2023-03-24T15:00:28.622Z,97806.44
2023-03-24T15:03:11.496Z,97808.94
2023-03-24T15:05:39.619Z,97818.53
2023-03-24T15:08:21.830Z,97810.03
2023-03-24T15:10:53.008Z,97817.13
2023-03-24T15:13:42.251Z,97812.91
2023-03-24T15:16:22.974Z,97825.13
2023-03-24T15:19:02.651Z,97822.47
2023-03-24T15:21:34.347Z,97814.09
2023-03-24T15:24:02.364Z,97818.97
2023-03-24T15:26:31.670Z,97828.47
2023-03-24T15:29:01.262Z,97820.06
2023-03-24T15:31:32.828Z,97816.84
2023-03-24T15:34:26.129Z,97801.78
2023-03-24T15:37:08.613Z,97804.22
2023-03-24T15:39:38.053Z,97794.06
2023-03-24T15:42:13.649Z,97796.50
2023-03-24T15:44:41.511Z,97788.38
2023-03-24T15:47:24.777Z,97793.69
2023-03-24T15:50:05.539Z,97795.09
2023-03-24T15:52:38.151Z,97782.09
2023-03-24T15:55:24.066Z,97786.41
2023-03-24T15:57:51.299Z,97793.91
2023-03-24T16:00:20.756Z,97789.47
2023-03-24T16:02:56.185Z,97783.34
2023-03-24T16:05:26.344Z,97794.75
2023-03-24T16:08:01.196Z,97791.50
2023-03-24T16:10:39.992Z,97788.25
2023-03-24T16:13:20.908Z,97781.31
2023-03-24T16:15:53.353Z,97782.31
2023-03-24T16:18:35.013Z,97786.19
2023-03-24T16:21:03.409Z,97782.50
2023-03-24T16:23:31.228Z,97776.81
2023-03-24T16:25:58.017Z,97774.59
2023-03-24T16:28:25.625Z,97773.91
2023-03-24T16:30:58.824Z,97778.41
2023-03-24T16:33:25.941Z,97783.41
2023-03-24T16:35:52.780Z,97784.66
2023-03-24T16:38:19.673Z,97787.06
2023-03-24T16:40:52.688Z,97785.03
2023-03-24T16:43:20.262Z,97787.03
2023-03-24T16:45:48.270Z,97786.59
2023-03-24T16:48:15.891Z,97790.22
2023-03-24T16:50:44.519Z,97783.13
2023-03-24T16:53:11.679Z,97793.25
2023-03-24T16:55:41.879Z,97790.22
2023-03-24T16:58:09.007Z,97789.31
2023-03-24T17:00:37.483Z,97791.66
2023-03-24T17:03:05.896Z,97797.50
2023-03-24T17:05:51.003Z,97796.94
2023-03-24T17:08:19.137Z,97795.88
2023-03-24T17:10:48.628Z,97794.19
2023-03-24T17:13:19.801Z,97789.88
2023-03-24T17:15:46.679Z,97787.41
2023-03-24T17:18:13.806Z,97794.28
2023-03-24T17:20:41.027Z,97794.63
2023-03-24T17:23:10.125Z,97789.28
2023-03-24T17:25:37.386Z,97794.13
2023-03-24T17:28:07.368Z,97790.84
2023-03-24T17:30:34.295Z,97790.72
2023-03-24T17:33:01.672Z,97795.56
2023-03-24T17:35:28.517Z,97799.75
2023-03-24T17:37:55.316Z,97808.94
2023-03-24T17:40:22.857Z,97805.69
2023-03-24T17:42:49.970Z,97808.78
2023-03-24T17:45:18.517Z,97808.56
2023-03-24T17:47:46.594Z,97808.09
2023-03-24T17:50:14.545Z,97807.13
2023-03-24T17:52:51.430Z,97807.69
2023-03-24T17:55:18.445Z,97811.13
2023-03-24T17:57:45.737Z,97811.06
2023-03-24T18:00:14.888Z,97819.31
2023-03-24T18:02:43.056Z,97819.34
2023-03-24T18:05:12.011Z,97823.53
2023-03-24T18:07:39.943Z,97825.50
2023-03-24T18:10:08.504Z,97829.88
2023-03-24T18:12:37.025Z,97833.56
2023-03-24T18:15:05.492Z,97829.69
2023-03-24T18:17:32.408Z,97819.94
2023-03-24T18:20:08.058Z,97828.72
2023-03-24T18:22:35.242Z,97832.97
2023-03-24T18:25:04.049Z,97837.66
2023-03-24T18:27:30.885Z,97837.47
2023-03-24T18:29:57.570Z,97838.81
2023-03-24T18:32:24.417Z,97843.38
2023-03-24T18:34:51.167Z,97836.94
2023-03-24T18:37:17.963Z,97845.84
2023-03-24T18:39:44.982Z,97851.44
2023-03-24T18:42:12.148Z,97847.28
2023-03-24T18:44:38.882Z,97856.38
2023-03-24T18:47:06.032Z,97851.31
2023-03-24T18:49:32.715Z,97858.81
2023-03-24T18:51:59.473Z,97863.53
2023-03-24T18:54:26.506Z,97864.84
2023-03-24T18:56:53.252Z,97869.47
2023-03-24T18:59:20.337Z,97871.09
2023-03-24T19:01:48.865Z,97867.94
2023-03-24T19:04:16.637Z,97863.84
2023-03-24T19:06:44.551Z,97872.59
2023-03-24T19:09:13.007Z,97879.63
2023-03-24T19:11:42.749Z,97878.00
2023-03-24T19:14:12.349Z,97866.91
2023-03-24T19:16:39.378Z,97874.53
2023-03-24T19:19:07.099Z,97873.47
2023-03-24T19:21:34.017Z,97873.41
2023-03-24T19:24:00.778Z,97882.22
2023-03-24T19:26:27.480Z,97883.06
2023-03-24T19:28:54.221Z,97885.06
2023-03-24T19:31:20.956Z,97880.47
2023-03-24T19:33:48.164Z,97886.09
2023-03-24T19:36:16.040Z,97890.31
2023-03-24T19:38:43.205Z,97879.13
2023-03-24T19:41:12.337Z,97891.00
2023-03-24T19:43:39.130Z,97889.38
2023-03-24T19:46:06.608Z,97888.06
2023-03-24T19:48:35.084Z,97887.44
2023-03-24T19:51:02.240Z,97893.25
2023-03-24T19:53:28.992Z,97898.66
2023-03-24T19:55:59.273Z,97913.81
2023-03-24T19:58:26.366Z,97916.91
2023-03-24T20:00:53.599Z,97925.97
2023-03-24T20:03:20.711Z,97917.28
2023-03-24T20:05:48.893Z,97922.09
2023-03-24T20:08:16.333Z,97914.53
2023-03-24T20:10:43.099Z,97917.84
2023-03-24T20:13:10.293Z,97938.63
2023-03-24T20:15:37.428Z,97953.72
2023-03-24T20:18:04.576Z,97960.38
2023-03-24T20:20:32.241Z,97957.81
2023-03-24T20:22:58.969Z,97957.91
2023-03-24T20:25:25.865Z,97974.22
2023-03-24T20:27:52.735Z,97992.63
2023-03-24T20:30:20.914Z,97992.84
2023-03-24T20:32:47.902Z,98002.78
2023-03-24T20:35:15.038Z,98009.19
2023-03-24T20:37:42.200Z,98011.34
2023-03-24T20:40:10.840Z,98004.78
2023-03-24T20:42:38.111Z,98007.91
2023-03-24T20:45:06.366Z,98004.16
2023-03-24T20:47:33.185Z,98000.69
2023-03-24T20:50:00.180Z,98002.50
2023-03-24T20:52:27.494Z,98008.22
2023-03-24T20:54:54.584Z,98007.91
2023-03-24T20:57:21.419Z,98000.19
2023-03-24T20:59:48.823Z,98006.44
2023-03-24T21:02:16.264Z,98003.28
2023-03-24T21:04:43.345Z,97992.81
2023-03-24T21:07:10.528Z,97990.69
2023-03-24T21:09:37.527Z,97966.09
2023-03-24T21:12:06.774Z,97955.75
2023-03-24T21:14:34.153Z,97960.16
2023-03-24T21:17:02.217Z,97959.84
2023-03-24T21:19:29.152Z,97946.91
2023-03-24T21:21:56.558Z,97952.31
2023-03-24T21:24:24.102Z,97939.19
2023-03-24T21:26:51.541Z,97933.63
2023-03-24T21:29:18.538Z,97925.25
2023-03-24T21:31:45.509Z,97915.63
2023-03-24T21:34:12.254Z,97918.41
2023-03-24T21:36:39.308Z,97917.13
2023-03-24T21:39:10.521Z,97915.63
2023-03-24T21:41:39.196Z,97910.03
2023-03-24T21:44:08.264Z,97916.25
2023-03-24T21:46:35.309Z,97923.97
2023-03-24T21:49:02.309Z,97913.66
2023-03-24T21:51:34.316Z,97915.94
2023-03-24T21:54:04.488Z,97916.75
2023-03-24T21:56:32.924Z,97908.41
2023-03-24T21:59:00.627Z,97908.59
2023-03-24T22:01:28.127Z,97907.94
2023-03-24T22:03:56.128Z,97906.78
2023-03-24T22:06:23.435Z,97911.53
2023-03-24T22:08:51.090Z,97910.72
2023-03-24T22:11:19.220Z,97912.38
2023-03-24T22:13:46.835Z,97902.19
2023-03-24T22:16:15.616Z,97896.78
2023-03-24T22:18:42.583Z,97894.16
2023-03-24T22:21:13.262Z,97890.25
2023-03-24T22:23:42.939Z,97892.69
2023-03-24T22:26:15.082Z,97902.56
2023-03-24T22:28:42.664Z,97905.50
2023-03-24T22:31:15.215Z,97912.38
2023-03-24T22:33:42.078Z,97912.84
2023-03-24T22:36:10.109Z,97920.56
2023-03-24T22:38:37.432Z,97922.88
2023-03-24T22:41:06.826Z,97921.88
2023-03-24T22:43:33.746Z,97926.66
2023-03-24T22:46:00.643Z,97927.59
2023-03-24T22:48:27.763Z,97920.41
2023-03-24T22:50:54.787Z,97916.66
2023-03-24T22:53:21.850Z,97933.53
2023-03-24T22:55:49.290Z,97936.31
2023-03-24T22:58:16.295Z,97939.91
2023-03-24T23:00:44.351Z,97943.50
2023-03-24T23:03:11.640Z,97941.41
2023-03-24T23:05:46.392Z,97938.44
2023-03-24T23:08:15.482Z,97947.75
2023-03-24T23:10:47.184Z,97936.75
2023-03-24T23:13:14.774Z,97930.72
2023-03-24T23:15:42.900Z,97934.00
2023-03-24T23:18:10.663Z,97936.97
2023-03-24T23:20:37.863Z,97937.78
2023-03-24T23:23:06.791Z,97942.50
2023-03-24T23:25:45.084Z,97938.75
2023-03-24T23:28:13.240Z,97937.25
2023-03-24T23:30:40.915Z,97939.72
2023-03-24T23:33:07.986Z,97933.47
2023-03-24T23:35:36.240Z,97922.66
2023-03-24T23:38:03.308Z,97923.16
2023-03-24T23:40:30.076Z,97931.84
2023-03-24T23:42:57.136Z,97920.84
2023-03-24T23:45:23.960Z,97919.22
2023-03-24T23:47:52.003Z,97914.97
2023-03-24T23:50:20.732Z,97914.97
2023-03-24T23:52:48.124Z,97910.03
2023-03-24T23:55:18.366Z,97908.41
2023-03-24T23:57:45.758Z,97906.13
